Time;durP1;ratioP1;P1;durP2;ratioP2;P2;SDS_P1;SDS_P2;PMS_P1;PMS_P2;Temp;Humidity;BMP_temperature;BMP_pressure;BME280_temperature;BME280_humidity;BME280_pressure;Samples;Min_cycle;Max_cycle;Signal;HPM_P1;HPM_P2
2022/01/23 00:00:34;;;;;;;26.73;19.13;;;;;;;;;;5073660;28;20661;-57
2022/01/23 00:03:02;;;;;;;25.00;18.67;;;;;;;;;;5099538;28;20176;-55
2022/01/23 00:05:34;;;;;;;25.80;18.70;;;;;;;;;;5088956;28;20303;-57
2022/01/23 00:08:01;;;;;;;23.63;17.60;;;;;;;;;;5071489;28;20233;-56
2022/01/23 00:10:27;;;;;;;27.30;19.20;;;;;;;;;;5078216;28;20198;-57
2022/01/23 00:13:06;;;;;;;24.73;19.70;;;;;;;;;;5059149;28;20175;-57
2022/01/23 00:18:17;;;;;;;26.53;18.70;;;;;;;;;;5085609;28;20183;-57
2022/01/23 00:20:45;;;;;;;25.50;19.33;;;;;;;;;;5098730;28;20201;-57
2022/01/23 00:23:28;;;;;;;22.43;17.97;;;;;;;;;;5093715;28;20180;-57
2022/01/23 00:31:27;;;;;;;27.97;18.43;;;;;;;;;;5090125;28;20215;-56
2022/01/23 00:33:58;;;;;;;23.50;17.63;;;;;;;;;;5094910;28;20593;-57
2022/01/23 00:36:25;;;;;;;25.30;18.23;;;;;;;;;;5072996;28;20168;-57
2022/01/23 00:38:55;;;;;;;23.67;17.60;;;;;;;;;;5070036;28;20184;-57
2022/01/23 00:41:27;;;;;;;20.97;16.73;;;;;;;;;;5067034;28;20176;-56
2022/01/23 00:43:56;;;;;;;23.97;18.73;;;;;;;;;;5070414;28;20255;-57
2022/01/23 00:46:35;;;;;;;22.13;16.27;;;;;;;;;;5071903;28;20198;-57
2022/01/23 00:49:46;;;;;;;25.87;18.43;;;;;;;;;;5089732;28;20201;-57
2022/01/23 00:51:48;;;;;;;21.57;18.07;;;;;;;;;;5073588;28;20182;-56
2022/01/23 00:54:14;;;;;;;23.53;17.97;;;;;;;;;;5080344;28;20171;-57
2022/01/23 00:56:43;;;;;;;23.13;17.97;;;;;;;;;;5076431;28;20219;-56
2022/01/23 00:59:09;;;;;;;24.93;17.97;;;;;;;;;;5091807;28;20598;-57
2022/01/23 01:01:38;;;;;;;22.27;16.83;;;;;;;;;;5097797;28;20512;-56
2022/01/23 01:04:04;;;;;;;24.43;18.27;;;;;;;;;;5081640;28;20191;-57
2022/01/23 01:06:30;;;;;;;22.80;17.63;;;;;;;;;;5087845;28;20176;-56
2022/01/23 01:09:05;;;;;;;22.30;16.43;;;;;;;;;;5089159;28;20213;-56
2022/01/23 01:11:56;;;;;;;21.60;17.30;;;;;;;;;;5093439;28;20183;-57
2022/01/23 01:17:25;;;;;;;28.57;17.60;;;;;;;;;;5086447;28;20719;-57
2022/01/23 01:36:13;;;;;;;23.60;18.17;;;;;;;;;;5097527;28;20180;-56
2022/01/23 01:38:39;;;;;;;22.50;17.67;;;;;;;;;;5083623;28;20191;-57
2022/01/23 01:41:05;;;;;;;27.00;19.00;;;;;;;;;;5087310;28;20265;-57
2022/01/23 01:43:31;;;;;;;25.23;17.73;;;;;;;;;;5066329;28;20191;-57
2022/01/23 01:45:57;;;;;;;23.80;17.73;;;;;;;;;;5082497;28;20180;-57
2022/01/23 01:48:27;;;;;;;23.37;17.53;;;;;;;;;;5087038;28;20558;-57
2022/01/23 01:50:55;;;;;;;24.57;18.90;;;;;;;;;;5083849;28;20226;-57
2022/01/23 01:53:22;;;;;;;25.07;20.20;;;;;;;;;;5076473;28;20176;-58
2022/01/23 01:55:52;;;;;;;23.03;18.60;;;;;;;;;;5068921;28;20204;-57
2022/01/23 02:09:32;;;;;;;24.30;18.33;;;;;;;;;;5091892;28;20326;-57
2022/01/23 02:12:21;;;;;;;28.10;19.27;;;;;;;;;;5086381;28;20168;-56
2022/01/23 02:18:20;;;;;;;23.07;18.13;;;;;;;;;;5087123;28;20220;-57
2022/01/23 02:23:21;;;;;;;25.23;18.77;;;;;;;;;;5083991;28;20580;-57
2022/01/23 02:50:46;;;;;;;26.03;18.80;;;;;;;;;;5090493;28;20237;-57
2022/01/23 02:53:33;;;;;;;26.70;18.13;;;;;;;;;;5090206;28;20313;-57
2022/01/23 02:56:01;;;;;;;26.20;18.33;;;;;;;;;;5071648;28;20269;-57
2022/01/23 02:58:36;;;;;;;24.10;18.70;;;;;;;;;;5058893;28;20192;-57
2022/01/23 03:03:36;;;;;;;23.57;18.10;;;;;;;;;;5057814;28;20184;-57
2022/01/23 03:06:21;;;;;;;26.40;19.70;;;;;;;;;;5066017;28;20165;-57
2022/01/23 03:09:49;;;;;;;23.77;18.67;;;;;;;;;;5048338;28;20177;-57
2022/01/23 03:14:39;;;;;;;24.97;18.87;;;;;;;;;;5071875;28;20246;-57
2022/01/23 03:28:22;;;;;;;24.17;19.43;;;;;;;;;;5068873;28;20510;-57
2022/01/23 03:31:08;;;;;;;26.40;19.23;;;;;;;;;;5057556;28;20188;-57
2022/01/23 03:33:34;;;;;;;26.17;18.80;;;;;;;;;;5050361;28;20685;-57
2022/01/23 03:36:01;;;;;;;23.07;18.20;;;;;;;;;;5064770;28;20184;-57
2022/01/23 03:38:28;;;;;;;24.70;18.37;;;;;;;;;;5050847;28;20183;-57
2022/01/23 03:40:54;;;;;;;24.40;19.00;;;;;;;;;;5067326;28;20212;-57
2022/01/23 03:43:27;;;;;;;28.10;18.50;;;;;;;;;;5048576;28;20208;-57
2022/01/23 03:46:19;;;;;;;21.50;16.93;;;;;;;;;;5048815;28;20239;-57
2022/01/23 03:51:08;;;;;;;21.33;17.17;;;;;;;;;;5054580;28;20193;-56
2022/01/23 03:53:35;;;;;;;23.07;16.07;;;;;;;;;;5038432;28;20241;-57
2022/01/23 03:56:01;;;;;;;25.23;19.40;;;;;;;;;;5049218;28;20290;-57
2022/01/23 03:58:27;;;;;;;22.13;17.80;;;;;;;;;;5059283;28;20219;-57
2022/01/23 04:01:02;;;;;;;23.87;19.20;;;;;;;;;;5067131;28;20224;-56
2022/01/23 04:03:34;;;;;;;24.27;18.00;;;;;;;;;;5067953;28;20180;-56
2022/01/23 04:06:00;;;;;;;21.80;16.70;;;;;;;;;;5064547;28;20202;-57
2022/01/23 04:08:26;;;;;;;23.97;17.93;;;;;;;;;;5069449;28;20258;-57
2022/01/23 04:10:53;;;;;;;20.97;16.27;;;;;;;;;;5067712;28;20275;-56
2022/01/23 04:13:29;;;;;;;20.90;16.97;;;;;;;;;;5067922;28;20221;-57
2022/01/23 04:16:14;;;;;;;25.07;18.40;;;;;;;;;;5070981;28;20194;-56
2022/01/23 04:47:04;;;;;;;21.57;16.50;;;;;;;;;;5073289;28;20237;-56
2022/01/23 04:49:04;;;;;;;21.50;16.03;;;;;;;;;;5074945;28;20188;-56
2022/01/23 04:59:48;;;;;;;24.07;18.13;;;;;;;;;;5086200;28;20614;-57
2022/01/23 05:02:48;;;;;;;22.30;16.37;;;;;;;;;;5065734;28;20455;-57
2022/01/23 05:05:01;;;;;;;22.43;17.90;;;;;;;;;;5087681;28;20669;-56
2022/01/23 05:07:30;;;;;;;22.07;16.67;;;;;;;;;;5069557;28;20183;-57
2022/01/23 05:09:59;;;;;;;23.47;17.30;;;;;;;;;;5081179;28;20533;-57
2022/01/23 05:12:30;;;;;;;21.53;16.87;;;;;;;;;;5069156;28;20179;-57
2022/01/23 05:14:57;;;;;;;21.80;17.00;;;;;;;;;;5052753;28;20278;-56
2022/01/23 05:17:23;;;;;;;21.30;16.73;;;;;;;;;;5079073;28;20187;-57
2022/01/23 05:19:53;;;;;;;23.03;18.10;;;;;;;;;;5086537;28;20258;-57
2022/01/23 05:25:17;;;;;;;22.90;17.27;;;;;;;;;;5087401;28;20517;-57
2022/01/23 05:27:37;;;;;;;22.63;17.73;;;;;;;;;;5085978;28;20603;-57
2022/01/23 05:30:13;;;;;;;22.40;17.43;;;;;;;;;;5052914;28;20180;-57
2022/01/23 05:32:43;;;;;;;23.17;16.40;;;;;;;;;;5061867;28;20642;-57
2022/01/23 05:35:11;;;;;;;26.00;18.67;;;;;;;;;;5086452;28;20560;-57
2022/01/23 05:37:37;;;;;;;22.47;17.40;;;;;;;;;;5086622;28;20176;-57
2022/01/23 05:40:05;;;;;;;21.67;16.07;;;;;;;;;;5068967;28;20257;-57
2022/01/23 05:42:37;;;;;;;20.93;16.97;;;;;;;;;;5080234;28;20183;-57
2022/01/23 05:45:08;;;;;;;24.63;17.60;;;;;;;;;;5055970;28;20184;-57
2022/01/23 05:47:36;;;;;;;25.03;17.37;;;;;;;;;;5076089;28;20204;-57
2022/01/23 05:50:02;;;;;;;23.47;17.27;;;;;;;;;;5053301;28;20595;-57
2022/01/23 05:52:31;;;;;;;22.27;17.03;;;;;;;;;;5064594;28;20192;-57
2022/01/23 05:54:58;;;;;;;23.20;17.40;;;;;;;;;;5061815;28;20263;-57
2022/01/23 05:57:32;;;;;;;21.87;16.27;;;;;;;;;;5064154;28;20199;-57
2022/01/23 06:00:07;;;;;;;20.50;16.07;;;;;;;;;;5086247;28;20618;-56
2022/01/23 06:02:34;;;;;;;22.40;16.97;;;;;;;;;;5073083;28;20181;-57
2022/01/23 06:05:00;;;;;;;22.27;16.77;;;;;;;;;;5070318;28;20186;-56
2022/01/23 06:07:26;;;;;;;25.23;18.07;;;;;;;;;;5088482;28;20175;-56
2022/01/23 06:09:52;;;;;;;23.17;17.57;;;;;;;;;;5073147;28;20179;-57
2022/01/23 06:12:21;;;;;;;22.83;17.43;;;;;;;;;;5071308;28;20187;-57
2022/01/23 06:14:50;;;;;;;26.00;17.73;;;;;;;;;;5091081;28;20678;-57
2022/01/23 06:17:16;;;;;;;22.40;16.67;;;;;;;;;;5073401;28;20665;-56
2022/01/23 06:19:46;;;;;;;24.37;17.83;;;;;;;;;;5073244;28;20736;-57
2022/01/23 06:22:13;;;;;;;19.83;15.77;;;;;;;;;;5086330;28;20581;-56
2022/01/23 06:24:46;;;;;;;24.17;17.77;;;;;;;;;;5072801;28;20233;-56
2022/01/23 06:27:18;;;;;;;22.13;16.53;;;;;;;;;;5074895;28;20606;-56
2022/01/23 06:29:45;;;;;;;20.83;16.00;;;;;;;;;;5065326;28;20183;-56
2022/01/23 06:32:12;;;;;;;21.90;16.47;;;;;;;;;;5069772;28;20192;-57
2022/01/23 06:34:39;;;;;;;23.90;17.73;;;;;;;;;;5072170;28;20192;-57
2022/01/23 06:37:08;;;;;;;20.93;16.23;;;;;;;;;;5069682;28;20202;-57
2022/01/23 06:39:34;;;;;;;19.70;15.90;;;;;;;;;;5079988;28;20235;-57
2022/01/23 06:42:00;;;;;;;21.03;16.17;;;;;;;;;;5082326;28;20225;-57
2022/01/23 06:44:27;;;;;;;23.10;17.23;;;;;;;;;;5088285;28;20748;-57
2022/01/23 06:46:53;;;;;;;20.77;15.97;;;;;;;;;;5088979;28;20183;-56
2022/01/23 06:49:19;;;;;;;20.97;16.10;;;;;;;;;;5066576;28;20187;-57
2022/01/23 06:51:49;;;;;;;20.87;16.30;;;;;;;;;;5086174;28;20188;-57
2022/01/23 06:54:18;;;;;;;21.30;16.60;;;;;;;;;;5087551;28;20590;-57
2022/01/23 06:56:47;;;;;;;22.43;16.67;;;;;;;;;;5058797;28;20212;-57
2022/01/23 06:59:13;;;;;;;22.07;16.33;;;;;;;;;;5067929;28;20181;-56
2022/01/23 07:01:42;;;;;;;22.30;17.60;;;;;;;;;;5082824;28;20665;-57
2022/01/23 07:04:11;;;;;;;20.97;16.17;;;;;;;;;;5085756;28;20568;-59
2022/01/23 07:06:37;;;;;;;22.80;17.20;;;;;;;;;;5061142;28;20270;-56
2022/01/23 07:09:14;;;;;;;21.23;17.03;;;;;;;;;;5068361;28;20184;-57
2022/01/23 07:11:44;;;;;;;19.93;14.73;;;;;;;;;;5085609;28;20541;-57
2022/01/23 07:14:13;;;;;;;21.97;17.07;;;;;;;;;;5077817;28;20198;-57
2022/01/23 07:16:46;;;;;;;23.63;16.70;;;;;;;;;;5070663;28;20179;-57
2022/01/23 07:19:21;;;;;;;22.60;16.17;;;;;;;;;;5077422;28;20198;-57
2022/01/23 07:21:51;;;;;;;22.17;16.57;;;;;;;;;;5090838;28;20583;-56
2022/01/23 07:24:19;;;;;;;20.17;15.90;;;;;;;;;;5091979;28;20743;-57
2022/01/23 07:26:45;;;;;;;21.63;15.97;;;;;;;;;;5070960;28;20534;-57
2022/01/23 07:29:11;;;;;;;24.27;17.97;;;;;;;;;;5070058;28;20168;-56
2022/01/23 07:34:08;;;;;;;22.30;16.90;;;;;;;;;;5090543;28;20182;-57
2022/01/23 07:36:35;;;;;;;21.40;16.10;;;;;;;;;;5089360;28;20258;-56
2022/01/23 07:39:02;;;;;;;21.93;16.80;;;;;;;;;;5082231;28;20662;-56
2022/01/23 07:41:28;;;;;;;23.20;17.53;;;;;;;;;;5069665;28;20190;-57
2022/01/23 07:43:54;;;;;;;21.00;16.90;;;;;;;;;;5087348;28;20271;-57
2022/01/23 07:46:23;;;;;;;26.30;18.00;;;;;;;;;;5094342;28;20253;-57
2022/01/23 07:48:56;;;;;;;22.37;17.30;;;;;;;;;;5079977;28;20172;-57
2022/01/23 07:51:23;;;;;;;24.87;18.00;;;;;;;;;;5071738;28;20553;-56
2022/01/23 07:53:55;;;;;;;20.13;15.40;;;;;;;;;;5070088;28;20186;-58
2022/01/23 07:56:22;;;;;;;22.30;17.07;;;;;;;;;;5090897;28;20607;-57
2022/01/23 07:58:51;;;;;;;21.07;15.73;;;;;;;;;;5090546;28;20510;-57
2022/01/23 08:01:25;;;;;;;21.77;16.87;;;;;;;;;;5077047;28;20678;-57
2022/01/23 08:03:55;;;;;;;22.47;16.53;;;;;;;;;;5066095;28;20186;-57
2022/01/23 08:06:40;;;;;;;24.03;17.47;;;;;;;;;;5070260;28;20168;-57
2022/01/23 08:09:10;;;;;;;21.57;16.07;;;;;;;;;;5073241;28;20210;-57
2022/01/23 08:11:36;;;;;;;22.67;16.57;;;;;;;;;;5087262;28;20535;-57
2022/01/23 08:14:03;;;;;;;23.27;16.50;;;;;;;;;;5093236;28;20549;-57
2022/01/23 08:16:29;;;;;;;20.50;15.23;;;;;;;;;;5094913;28;20182;-56
2022/01/23 08:18:55;;;;;;;22.23;17.00;;;;;;;;;;5073117;28;20574;-57
2022/01/23 08:21:21;;;;;;;23.60;16.97;;;;;;;;;;5087003;28;20625;-57
2022/01/23 08:23:55;;;;;;;24.80;17.93;;;;;;;;;;5095008;28;20534;-57
2022/01/23 08:26:22;;;;;;;22.20;17.03;;;;;;;;;;5090529;28;20262;-57
2022/01/23 08:28:50;;;;;;;24.73;18.10;;;;;;;;;;5096656;28;20182;-57
2022/01/23 08:31:23;;;;;;;22.97;17.20;;;;;;;;;;5088153;28;20252;-60
2022/01/23 08:33:53;;;;;;;39.40;25.63;;;;;;;;;;5073358;28;20175;-55
2022/01/23 08:36:19;;;;;;;30.83;22.80;;;;;;;;;;5073795;28;20271;-55
2022/01/23 08:38:48;;;;;;;31.27;23.40;;;;;;;;;;5065033;28;20184;-55
2022/01/23 08:43:48;;;;;;;32.73;22.17;;;;;;;;;;5076719;28;20191;-55
2022/01/23 08:46:15;;;;;;;33.40;24.73;;;;;;;;;;5082624;28;20233;-55
2022/01/23 08:48:41;;;;;;;32.80;22.90;;;;;;;;;;5087523;28;20179;-55
2022/01/23 08:51:07;;;;;;;30.70;22.83;;;;;;;;;;5094879;28;20176;-55
2022/01/23 08:53:34;;;;;;;32.20;22.87;;;;;;;;;;5091473;28;20207;-55
2022/01/23 08:56:00;;;;;;;31.80;23.00;;;;;;;;;;5097848;28;20623;-55
2022/01/23 08:58:26;;;;;;;30.17;22.90;;;;;;;;;;5083784;28;20185;-55
2022/01/23 09:00:55;;;;;;;33.87;25.63;;;;;;;;;;5070245;28;20211;-56
2022/01/23 09:03:21;;;;;;;29.63;22.20;;;;;;;;;;5079422;28;20648;-55
2022/01/23 09:05:48;;;;;;;39.50;24.77;;;;;;;;;;5079769;28;20663;-56
2022/01/23 09:08:15;;;;;;;38.50;24.43;;;;;;;;;;5069884;28;20232;-56
2022/01/23 09:10:53;;;;;;;32.77;23.13;;;;;;;;;;5085916;28;20175;-55
2022/01/23 09:13:32;;;;;;;36.00;23.97;;;;;;;;;;5068962;28;20171;-55
2022/01/23 09:15:58;;;;;;;35.00;23.20;;;;;;;;;;5067491;28;20515;-55
2022/01/23 09:18:27;;;;;;;35.87;23.73;;;;;;;;;;5087099;28;20639;-56
2022/01/23 09:20:54;;;;;;;31.50;23.40;;;;;;;;;;5066620;28;20337;-55
2022/01/23 09:23:20;;;;;;;32.97;23.90;;;;;;;;;;5068533;28;20172;-55
2022/01/23 09:25:47;;;;;;;37.10;25.20;;;;;;;;;;5070480;28;20168;-55
2022/01/23 09:28:14;;;;;;;32.57;23.63;;;;;;;;;;5067786;28;20191;-55
2022/01/23 09:30:51;;;;;;;34.07;25.03;;;;;;;;;;5063304;28;20207;-55
2022/01/23 09:33:18;;;;;;;31.87;24.53;;;;;;;;;;5070533;28;20230;-56
2022/01/23 09:35:44;;;;;;;36.07;24.13;;;;;;;;;;5088577;28;20183;-55
2022/01/23 09:38:13;;;;;;;37.53;25.33;;;;;;;;;;5090573;28;20576;-56
2022/01/23 09:40:43;;;;;;;33.83;24.13;;;;;;;;;;5072355;28;20215;-56
2022/01/23 09:43:12;;;;;;;34.93;24.87;;;;;;;;;;5070281;28;20664;-55
2022/01/23 09:45:39;;;;;;;34.83;24.47;;;;;;;;;;5071236;28;20195;-55
2022/01/23 09:48:05;;;;;;;37.97;25.07;;;;;;;;;;5067106;28;20169;-55
2022/01/23 09:50:36;;;;;;;41.27;24.50;;;;;;;;;;5095586;28;20537;-55
2022/01/23 09:53:03;;;;;;;35.30;23.87;;;;;;;;;;5056996;28;20550;-55
2022/01/23 09:55:31;;;;;;;37.03;26.50;;;;;;;;;;5089040;28;20294;-55
2022/01/23 09:57:58;;;;;;;39.83;26.23;;;;;;;;;;5072621;28;20196;-56
2022/01/23 10:00:27;;;;;;;36.17;25.73;;;;;;;;;;5081540;28;20615;-56
2022/01/23 10:02:53;;;;;;;37.60;24.80;;;;;;;;;;5073436;28;20479;-56
2022/01/23 10:05:20;;;;;;;34.23;25.87;;;;;;;;;;5083043;28;20204;-55
2022/01/23 10:07:46;;;;;;;40.73;26.10;;;;;;;;;;5056605;28;20709;-55
2022/01/23 10:10:24;;;;;;;37.63;25.20;;;;;;;;;;5071046;28;20180;-55
2022/01/23 10:12:55;;;;;;;33.63;24.40;;;;;;;;;;5069158;28;20179;-55
2022/01/23 10:15:22;;;;;;;36.37;25.40;;;;;;;;;;5088414;28;20528;-55
2022/01/23 10:17:51;;;;;;;34.73;25.87;;;;;;;;;;5067082;28;20182;-55
2022/01/23 10:20:18;;;;;;;36.17;25.57;;;;;;;;;;5071796;28;20195;-55
2022/01/23 10:22:47;;;;;;;35.20;26.60;;;;;;;;;;5089618;28;20736;-57
2022/01/23 10:25:15;;;;;;;40.77;25.17;;;;;;;;;;5088402;28;20175;-56
2022/01/23 10:28:10;;;;;;;34.37;24.90;;;;;;;;;;5087133;28;20176;-56
2022/01/23 10:30:42;;;;;;;35.63;25.00;;;;;;;;;;5068604;28;20199;-56
2022/01/23 10:33:10;;;;;;;39.47;27.77;;;;;;;;;;5071817;28;20662;-56
2022/01/23 10:35:59;;;;;;;37.03;25.43;;;;;;;;;;5071856;28;20500;-56
2022/01/23 10:38:27;;;;;;;39.47;26.47;;;;;;;;;;5066202;28;20186;-55
2022/01/23 10:41:05;;;;;;;37.27;25.40;;;;;;;;;;5052554;28;20226;-56
2022/01/23 10:49:01;;;;;;;33.67;23.80;;;;;;;;;;5090913;28;20229;-56
2022/01/23 10:51:27;;;;;;;42.43;25.50;;;;;;;;;;5068507;28;20492;-55
2022/01/23 10:53:57;;;;;;;36.27;25.50;;;;;;;;;;5087484;28;20616;-55
2022/01/23 10:56:24;;;;;;;39.77;25.53;;;;;;;;;;5067224;28;20298;-56
2022/01/23 10:59:09;;;;;;;35.87;25.20;;;;;;;;;;5070189;28;20183;-56
2022/01/23 11:01:36;;;;;;;33.13;24.13;;;;;;;;;;5067426;28;20202;-56
2022/01/23 11:04:09;;;;;;;33.13;23.50;;;;;;;;;;5069210;28;20830;-56
2022/01/23 11:07:11;;;;;;;33.73;24.27;;;;;;;;;;5069264;28;20195;-56
2022/01/23 11:09:38;;;;;;;33.70;23.83;;;;;;;;;;4994286;28;20575;-56
2022/01/23 11:12:14;;;;;;;34.37;25.53;;;;;;;;;;5060558;28;20274;-56
2022/01/23 11:17:26;;;;;;;34.40;23.83;;;;;;;;;;5084862;28;20206;-55
2022/01/23 11:20:02;;;;;;;36.90;24.87;;;;;;;;;;5094549;28;20205;-56
2022/01/23 11:22:31;;;;;;;35.90;26.17;;;;;;;;;;5064730;28;20897;-56
2022/01/23 11:25:07;;;;;;;35.47;24.57;;;;;;;;;;5083214;28;20697;-55
2022/01/23 11:27:38;;;;;;;37.30;24.03;;;;;;;;;;5066998;28;20195;-57
2022/01/23 11:30:09;;;;;;;33.43;23.07;;;;;;;;;;5062924;28;20176;-55
2022/01/23 11:32:38;;;;;;;31.63;23.53;;;;;;;;;;5060248;28;20198;-56
2022/01/23 11:35:12;;;;;;;36.20;25.20;;;;;;;;;;5073962;28;20176;-56
2022/01/23 11:37:45;;;;;;;36.37;26.27;;;;;;;;;;5079348;28;20201;-55
2022/01/23 11:40:31;;;;;;;37.80;27.13;;;;;;;;;;5036012;28;20279;-55
2022/01/23 11:53:56;;;;;;;35.50;25.77;;;;;;;;;;5083248;28;20649;-56
2022/01/23 11:56:30;;;;;;;35.93;26.57;;;;;;;;;;5079196;28;20776;-56
2022/01/23 11:59:21;;;;;;;39.37;26.63;;;;;;;;;;5073583;28;20706;-56
2022/01/23 12:02:21;;;;;;;39.60;26.43;;;;;;;;;;5075508;28;20299;-55
2022/01/23 12:05:06;;;;;;;36.50;25.73;;;;;;;;;;5071280;28;20306;-55
2022/01/23 12:07:34;;;;;;;40.83;26.07;;;;;;;;;;5049228;28;20192;-56
2022/01/23 12:10:46;;;;;;;44.30;27.47;;;;;;;;;;5061883;28;20188;-56
2022/01/23 12:13:44;;;;;;;44.43;27.30;;;;;;;;;;5080690;28;20639;-56
2022/01/23 12:16:32;;;;;;;41.33;27.60;;;;;;;;;;5072540;28;20280;-56
2022/01/23 12:19:18;;;;;;;38.17;26.27;;;;;;;;;;5068234;28;20515;-56
2022/01/23 12:21:46;;;;;;;41.50;27.73;;;;;;;;;;5072143;28;20184;-56
2022/01/23 12:24:15;;;;;;;40.63;27.07;;;;;;;;;;5059629;28;20367;-56
2022/01/23 12:26:44;;;;;;;42.97;26.50;;;;;;;;;;5093909;28;20179;-56
2022/01/23 12:29:23;;;;;;;40.37;28.17;;;;;;;;;;5096513;28;20233;-56
2022/01/23 12:31:49;;;;;;;40.33;26.07;;;;;;;;;;5090811;28;20871;-56
2022/01/23 12:34:16;;;;;;;42.03;27.23;;;;;;;;;;5071654;28;20195;-56
2022/01/23 12:36:54;;;;;;;43.03;26.83;;;;;;;;;;5075801;28;20172;-56
2022/01/23 12:39:20;;;;;;;46.37;28.77;;;;;;;;;;5086995;28;20236;-56
2022/01/23 12:41:55;;;;;;;46.53;28.63;;;;;;;;;;5063098;28;20588;-56
2022/01/23 12:44:25;;;;;;;45.27;27.97;;;;;;;;;;5083775;28;20191;-56
2022/01/23 12:46:52;;;;;;;41.87;28.03;;;;;;;;;;5059850;28;20171;-55
2022/01/23 12:49:20;;;;;;;44.00;29.17;;;;;;;;;;5065651;28;20196;-56
2022/01/23 12:51:50;;;;;;;42.13;27.33;;;;;;;;;;5066763;28;20207;-56
2022/01/23 12:54:17;;;;;;;44.20;28.37;;;;;;;;;;5061191;28;20172;-56
2022/01/23 12:56:45;;;;;;;41.70;27.47;;;;;;;;;;5069334;28;20238;-56
2022/01/23 12:59:20;;;;;;;41.07;26.47;;;;;;;;;;5086060;28;20179;-56
2022/01/23 13:01:47;;;;;;;51.77;28.00;;;;;;;;;;5065882;28;20637;-55
2022/01/23 13:04:17;;;;;;;67.33;31.40;;;;;;;;;;5065869;28;20175;-54
2022/01/23 13:06:54;;;;;;;98.67;33.77;;;;;;;;;;5082892;28;20187;-54
2022/01/23 13:09:49;;;;;;;71.10;31.07;;;;;;;;;;5077209;28;20188;-55
2022/01/23 13:12:12;;;;;;;49.07;28.90;;;;;;;;;;5083367;28;20202;-54
2022/01/23 13:14:41;;;;;;;55.73;30.40;;;;;;;;;;5077109;28;20570;-54
2022/01/23 13:18:18;;;;;;;47.83;30.77;;;;;;;;;;5086303;28;20187;-54
2022/01/23 13:31:18;;;;;;;44.20;28.03;;;;;;;;;;5032854;28;20426;-55
2022/01/23 13:33:44;;;;;;;46.20;29.27;;;;;;;;;;5064112;28;20179;-55
2022/01/23 13:36:11;;;;;;;43.73;28.40;;;;;;;;;;5071017;28;20181;-54
2022/01/23 13:38:39;;;;;;;45.90;28.13;;;;;;;;;;5047020;28;20569;-55
2022/01/23 13:41:21;;;;;;;47.80;30.40;;;;;;;;;;5054631;28;20227;-55
2022/01/23 13:57:38;;;;;;;45.17;27.70;;;;;;;;;;5075297;28;20172;-55
2022/01/23 14:00:01;;;;;;;50.23;28.03;;;;;;;;;;5057717;28;20289;-55
2022/01/23 14:02:29;;;;;;;38.10;24.83;;;;;;;;;;5076764;28;20190;-55
2022/01/23 14:05:07;;;;;;;49.97;28.10;;;;;;;;;;5076177;28;20176;-55
2022/01/23 14:07:33;;;;;;;43.67;26.80;;;;;;;;;;5079780;28;20175;-55
2022/01/23 14:10:09;;;;;;;38.87;25.10;;;;;;;;;;5080851;28;20875;-55
2022/01/23 14:12:36;;;;;;;38.20;25.77;;;;;;;;;;5065303;28;20389;-55
2022/01/23 14:15:05;;;;;;;40.77;24.17;;;;;;;;;;5065894;28;20504;-55
2022/01/23 14:17:36;;;;;;;39.70;26.30;;;;;;;;;;5083143;28;20180;-55
2022/01/23 14:20:05;;;;;;;35.60;23.60;;;;;;;;;;5087066;28;20733;-55
2022/01/23 14:22:36;;;;;;;38.70;24.80;;;;;;;;;;5069336;28;20211;-55
2022/01/23 14:25:07;;;;;;;37.80;25.93;;;;;;;;;;5068204;28;20226;-55
2022/01/23 14:27:33;;;;;;;37.87;24.47;;;;;;;;;;5068152;28;20227;-55
2022/01/23 14:30:03;;;;;;;35.23;24.93;;;;;;;;;;5077526;28;20180;-55
2022/01/23 14:32:48;;;;;;;38.53;25.67;;;;;;;;;;5085826;28;20520;-55
2022/01/23 14:35:29;;;;;;;35.07;24.87;;;;;;;;;;5068587;28;20820;-55
2022/01/23 14:38:10;;;;;;;32.53;22.33;;;;;;;;;;5068527;28;20179;-55
2022/01/23 14:40:37;;;;;;;34.13;22.30;;;;;;;;;;5066540;28;20219;-55
2022/01/23 14:43:11;;;;;;;34.67;24.23;;;;;;;;;;5067048;28;20192;-55
2022/01/23 14:45:44;;;;;;;33.73;24.07;;;;;;;;;;5084578;28;20171;-55
2022/01/23 14:48:11;;;;;;;34.67;23.87;;;;;;;;;;5083791;28;20263;-54
2022/01/23 14:50:39;;;;;;;32.33;22.27;;;;;;;;;;5085691;28;20259;-55
2022/01/23 14:53:24;;;;;;;35.00;22.70;;;;;;;;;;5067233;28;20182;-54
2022/01/23 14:55:52;;;;;;;32.93;24.50;;;;;;;;;;5057200;28;20223;-56
2022/01/23 14:58:20;;;;;;;34.53;23.67;;;;;;;;;;5067925;28;20175;-55
2022/01/23 15:00:51;;;;;;;36.53;25.07;;;;;;;;;;5050551;28;20296;-55
2022/01/23 15:03:17;;;;;;;34.57;23.73;;;;;;;;;;5086243;28;20168;-56
2022/01/23 15:05:43;;;;;;;33.63;21.83;;;;;;;;;;5084801;28;20180;-55
2022/01/23 15:08:12;;;;;;;29.93;22.77;;;;;;;;;;5065759;28;20210;-56
2022/01/23 15:10:39;;;;;;;32.23;22.17;;;;;;;;;;5067692;28;20771;-55
2022/01/23 15:13:06;;;;;;;27.77;21.17;;;;;;;;;;5085728;28;20258;-55
2022/01/23 15:15:32;;;;;;;26.27;19.87;;;;;;;;;;5051588;28;20287;-55
2022/01/23 15:17:58;;;;;;;28.07;20.93;;;;;;;;;;5066370;28;20225;-56
2022/01/23 15:20:25;;;;;;;26.23;21.30;;;;;;;;;;5067785;28;20857;-55
2022/01/23 15:22:51;;;;;;;30.57;20.97;;;;;;;;;;5067522;28;20195;-55
2022/01/23 15:25:18;;;;;;;29.60;21.20;;;;;;;;;;5084870;28;20167;-56
2022/01/23 15:27:45;;;;;;;32.13;20.23;;;;;;;;;;5068215;28;20176;-55
2022/01/23 15:30:12;;;;;;;29.33;23.70;;;;;;;;;;5083163;28;20413;-56
2022/01/23 15:32:39;;;;;;;30.37;22.37;;;;;;;;;;5082860;28;20215;-55
2022/01/23 15:35:06;;;;;;;31.83;23.10;;;;;;;;;;5069096;28;20175;-55
2022/01/23 15:37:32;;;;;;;31.40;22.30;;;;;;;;;;5084875;28;20272;-55
2022/01/23 15:39:58;;;;;;;30.80;22.60;;;;;;;;;;5075354;28;20578;-55
2022/01/23 15:42:25;;;;;;;30.60;22.53;;;;;;;;;;5079993;28;20164;-55
2022/01/23 15:44:51;;;;;;;30.50;21.73;;;;;;;;;;5084935;28;20183;-55
2022/01/23 15:47:18;;;;;;;31.07;21.77;;;;;;;;;;5065590;28;20593;-55
2022/01/23 15:49:44;;;;;;;29.63;21.97;;;;;;;;;;5068269;28;20680;-57
2022/01/23 15:52:12;;;;;;;30.20;22.07;;;;;;;;;;5067980;28;20182;-56
2022/01/23 15:54:42;;;;;;;33.87;22.37;;;;;;;;;;5084451;28;20227;-56
2022/01/23 15:57:11;;;;;;;32.87;20.93;;;;;;;;;;5067898;28;20199;-56
2022/01/23 15:59:37;;;;;;;31.47;21.13;;;;;;;;;;5084978;28;20188;-56
2022/01/23 16:02:07;;;;;;;36.67;21.83;;;;;;;;;;5066686;28;20340;-57
2022/01/23 16:04:37;;;;;;;32.47;22.30;;;;;;;;;;5084685;28;20179;-57
2022/01/23 16:07:06;;;;;;;31.77;21.47;;;;;;;;;;5083640;28;20816;-56
2022/01/23 16:09:33;;;;;;;29.30;21.17;;;;;;;;;;5054837;28;20566;-56
2022/01/23 16:11:59;;;;;;;32.93;21.87;;;;;;;;;;5078811;28;20183;-56
2022/01/23 16:14:25;;;;;;;34.27;22.17;;;;;;;;;;5067044;28;20270;-56
2022/01/23 16:16:52;;;;;;;32.73;22.23;;;;;;;;;;5066487;28;20481;-56
2022/01/23 16:19:20;;;;;;;30.37;21.40;;;;;;;;;;5066865;28;20548;-56
2022/01/23 16:21:46;;;;;;;31.97;21.17;;;;;;;;;;5067385;28;20613;-57
2022/01/23 16:24:16;;;;;;;30.50;21.30;;;;;;;;;;5066604;28;20266;-56
2022/01/23 16:26:46;;;;;;;35.97;23.77;;;;;;;;;;5050130;28;20182;-56
2022/01/23 16:29:13;;;;;;;38.70;27.17;;;;;;;;;;5083792;28;20157;-56
2022/01/23 16:31:40;;;;;;;37.80;25.53;;;;;;;;;;5083400;28;20175;-57
2022/01/23 16:34:09;;;;;;;36.93;24.30;;;;;;;;;;5084341;28;20180;-56
2022/01/23 16:36:36;;;;;;;32.30;23.07;;;;;;;;;;5065966;28;20225;-56
2022/01/23 16:39:05;;;;;;;35.20;23.73;;;;;;;;;;5067154;28;20774;-56
2022/01/23 16:41:32;;;;;;;37.57;25.07;;;;;;;;;;5065905;28;20226;-56
2022/01/23 16:43:59;;;;;;;35.07;24.83;;;;;;;;;;5066258;28;20202;-56
2022/01/23 16:46:28;;;;;;;33.80;24.23;;;;;;;;;;5084233;28;20171;-56
2022/01/23 16:48:57;;;;;;;35.20;24.63;;;;;;;;;;5066313;28;20231;-56
2022/01/23 16:51:24;;;;;;;35.60;24.33;;;;;;;;;;5064874;28;20266;-57
2022/01/23 16:53:50;;;;;;;33.87;23.93;;;;;;;;;;5065093;28;20309;-56
2022/01/23 16:56:17;;;;;;;39.77;25.77;;;;;;;;;;5083329;28;20630;-57
2022/01/23 16:58:46;;;;;;;34.17;23.73;;;;;;;;;;5065905;28;20683;-57
2022/01/23 17:01:13;;;;;;;33.33;23.73;;;;;;;;;;5077481;28;20180;-56
2022/01/23 17:03:39;;;;;;;31.83;23.60;;;;;;;;;;5065023;28;21444;-56
2022/01/23 17:06:05;;;;;;;32.73;23.10;;;;;;;;;;5084062;28;20538;-57
2022/01/23 17:08:33;;;;;;;30.97;21.77;;;;;;;;;;5065983;28;20199;-56
2022/01/23 17:10:59;;;;;;;35.03;25.07;;;;;;;;;;5065916;28;21409;-56
2022/01/23 17:13:26;;;;;;;33.87;23.17;;;;;;;;;;5065843;28;20670;-56
2022/01/23 17:15:52;;;;;;;35.30;23.87;;;;;;;;;;5064799;28;20242;-56
2022/01/23 17:18:20;;;;;;;34.37;23.80;;;;;;;;;;5082530;28;20229;-57
2022/01/23 17:20:49;;;;;;;33.00;23.00;;;;;;;;;;5082951;28;20195;-56
2022/01/23 17:23:15;;;;;;;30.00;21.73;;;;;;;;;;5083567;28;20171;-56
2022/01/23 17:25:41;;;;;;;36.73;24.23;;;;;;;;;;5083605;28;20167;-57
2022/01/23 17:28:08;;;;;;;31.20;22.77;;;;;;;;;;5065160;28;20171;-57
2022/01/23 17:30:34;;;;;;;35.13;23.10;;;;;;;;;;5053097;28;20731;-57